createdAt,value
2019-05-19T00:00:32.894Z,32.80
2019-05-19T00:02:59.387Z,35.00
2019-05-19T00:05:25.710Z,32.48
2019-05-19T00:07:52.078Z,33.58
2019-05-19T00:10:18.430Z,33.23
2019-05-19T00:12:44.710Z,32.38
2019-05-19T00:15:11.250Z,32.90
2019-05-19T00:17:37.493Z,32.48
2019-05-19T00:20:06.112Z,33.83
2019-05-19T00:22:33.490Z,33.33
2019-05-19T00:24:59.794Z,32.63
2019-05-19T00:27:26.116Z,36.65
2019-05-19T00:29:52.589Z,35.20
2019-05-19T00:32:19.054Z,35.90
2019-05-19T00:34:45.365Z,33.53
2019-05-19T00:37:11.725Z,34.38
2019-05-19T00:39:38.090Z,34.35
2019-05-19T00:42:04.439Z,34.23
2019-05-19T00:44:30.818Z,33.30
2019-05-19T00:46:57.325Z,34.88
2019-05-19T00:49:23.788Z,35.85
2019-05-19T00:51:50.169Z,33.75
2019-05-19T00:54:16.607Z,34.15
2019-05-19T00:56:43.678Z,35.10
2019-05-19T00:59:10.489Z,38.05
2019-05-19T01:01:36.904Z,39.45
2019-05-19T01:04:03.283Z,38.35
2019-05-19T01:06:29.524Z,34.73
2019-05-19T01:08:55.884Z,35.20
2019-05-19T01:11:22.124Z,35.20
2019-05-19T01:13:48.606Z,41.40
2019-05-19T01:16:14.980Z,38.33
2019-05-19T01:18:41.362Z,33.05
2019-05-19T01:21:07.878Z,37.23
2019-05-19T01:23:34.180Z,38.35
2019-05-19T01:26:00.463Z,35.17
2019-05-19T01:28:26.810Z,39.73
2019-05-19T01:30:53.236Z,36.53
2019-05-19T01:33:19.501Z,33.20
2019-05-19T01:35:45.757Z,35.50
2019-05-19T01:38:12.137Z,39.10
2019-05-19T01:40:38.394Z,32.20
2019-05-19T01:43:04.764Z,33.65
2019-05-19T01:45:31.229Z,36.40
2019-05-19T01:47:57.526Z,32.80
2019-05-19T01:50:23.896Z,33.60
2019-05-19T01:52:50.279Z,32.45
2019-05-19T01:55:16.830Z,34.80
2019-05-19T01:57:43.322Z,30.90
2019-05-19T02:00:10.231Z,32.98
2019-05-19T02:02:36.515Z,29.75
2019-05-19T02:05:06.176Z,27.85
2019-05-19T02:07:32.575Z,24.10
2019-05-19T02:09:59.060Z,30.00
2019-05-19T02:12:25.443Z,27.87
2019-05-19T02:14:51.710Z,30.57
2019-05-19T02:17:18.048Z,27.02
2019-05-19T02:19:44.306Z,29.80
2019-05-19T02:22:10.664Z,30.08
2019-05-19T02:24:37.035Z,28.60
2019-05-19T02:27:03.382Z,26.37
2019-05-19T02:29:29.623Z,28.42
2019-05-19T02:31:55.906Z,27.20
2019-05-19T02:34:22.151Z,24.80
2019-05-19T02:36:48.594Z,24.87
2019-05-19T02:39:14.998Z,26.07
2019-05-19T02:41:43.854Z,26.12
2019-05-19T02:44:11.015Z,22.93
2019-05-19T02:46:39.291Z,23.90
2019-05-19T02:49:06.196Z,26.25
2019-05-19T02:51:34.137Z,24.72
2019-05-19T02:54:01.786Z,27.48
2019-05-19T02:56:29.289Z,24.57
2019-05-19T02:58:57.051Z,24.77
2019-05-19T03:01:23.326Z,24.43
2019-05-19T03:03:49.706Z,22.58
2019-05-19T03:06:16.131Z,25.45
2019-05-19T03:08:42.699Z,26.00
2019-05-19T03:11:09.113Z,22.40
2019-05-19T03:13:35.277Z,23.75
2019-05-19T03:16:01.651Z,23.32
2019-05-19T03:18:27.933Z,23.73
2019-05-19T03:21:14.065Z,20.80
2019-05-19T03:23:40.309Z,27.07
2019-05-19T03:26:06.559Z,23.30
2019-05-19T03:28:32.843Z,22.85
2019-05-19T03:31:16.040Z,23.35
2019-05-19T03:33:46.929Z,21.77
2019-05-19T03:36:13.362Z,22.13
2019-05-19T03:38:39.627Z,23.50
2019-05-19T03:41:05.864Z,22.98
2019-05-19T03:43:32.129Z,23.02
2019-05-19T03:45:58.471Z,20.45
2019-05-19T03:48:24.959Z,20.70
2019-05-19T03:50:51.248Z,21.40
2019-05-19T03:53:17.491Z,19.77
2019-05-19T03:55:43.736Z,18.70
2019-05-19T03:58:10.132Z,18.90
2019-05-19T04:00:36.438Z,20.08
2019-05-19T04:03:02.779Z,19.67
2019-05-19T04:05:29.230Z,21.52
2019-05-19T04:07:55.524Z,19.62
2019-05-19T04:10:21.904Z,20.72
2019-05-19T04:12:48.421Z,18.45
2019-05-19T04:15:14.942Z,19.67
2019-05-19T04:17:41.160Z,19.00
2019-05-19T04:20:08.029Z,20.70
2019-05-19T04:22:34.314Z,18.98
2019-05-19T04:25:00.645Z,18.20
2019-05-19T04:27:26.876Z,19.30
2019-05-19T04:29:53.128Z,17.50
2019-05-19T04:32:19.368Z,19.75
2019-05-19T04:34:45.664Z,18.62
2019-05-19T04:37:12.023Z,17.35
2019-05-19T04:39:38.381Z,19.50
2019-05-19T04:42:04.717Z,18.62
2019-05-19T04:44:31.029Z,20.30
2019-05-19T04:46:57.350Z,18.15
2019-05-19T04:49:23.724Z,17.05
2019-05-19T04:52:05.537Z,17.50
2019-05-19T04:54:18.194Z,19.70
2019-05-19T04:56:44.543Z,17.07
2019-05-19T04:59:10.886Z,19.77
2019-05-19T05:01:37.327Z,18.75
2019-05-19T05:04:03.686Z,19.55
2019-05-19T05:06:29.936Z,17.20
2019-05-19T05:08:56.216Z,17.85
2019-05-19T05:11:22.452Z,17.27
2019-05-19T05:13:48.686Z,17.37
2019-05-19T05:16:14.951Z,17.15
2019-05-19T05:18:41.252Z,15.15
2019-05-19T05:21:07.826Z,16.35
2019-05-19T05:23:34.208Z,14.85
2019-05-19T05:26:00.639Z,18.50
2019-05-19T05:28:26.887Z,16.52
2019-05-19T05:30:53.171Z,17.40
2019-05-19T05:33:19.419Z,15.48
2019-05-19T05:35:45.706Z,16.75
2019-05-19T05:38:11.967Z,17.98
2019-05-19T05:40:38.198Z,16.12
2019-05-19T05:43:04.471Z,19.02
2019-05-19T05:45:30.976Z,18.20
2019-05-19T05:47:57.284Z,15.75
2019-05-19T05:50:26.516Z,16.00
2019-05-19T05:52:52.800Z,10.30
2019-05-19T05:55:19.028Z,9.33
2019-05-19T05:57:45.270Z,12.65
2019-05-19T06:00:12.070Z,10.55
2019-05-19T06:02:38.617Z,11.83
2019-05-19T06:05:05.864Z,10.80
2019-05-19T06:07:32.224Z,13.32
2019-05-19T06:09:58.578Z,12.95
2019-05-19T06:12:24.852Z,12.55
2019-05-19T06:14:51.273Z,12.82
2019-05-19T06:17:17.592Z,11.25
2019-05-19T06:19:43.968Z,11.85
2019-05-19T06:22:10.152Z,10.72
2019-05-19T06:24:36.508Z,12.40
2019-05-19T06:27:02.880Z,10.10
2019-05-19T06:29:29.154Z,11.22
2019-05-19T06:31:57.428Z,10.75
2019-05-19T06:34:23.671Z,10.90
2019-05-19T06:36:50.061Z,12.05
2019-05-19T06:39:16.304Z,10.88
2019-05-19T06:41:42.520Z,15.32
2019-05-19T06:44:08.847Z,16.73
2019-05-19T06:46:35.249Z,14.28
2019-05-19T06:49:01.670Z,14.35
2019-05-19T06:51:28.078Z,15.03
2019-05-19T06:53:54.269Z,14.40
2019-05-19T06:56:20.644Z,14.03
2019-05-19T06:58:46.966Z,15.50
2019-05-19T07:01:13.219Z,14.83
2019-05-19T07:03:39.533Z,14.28
2019-05-19T07:06:05.738Z,16.15
2019-05-19T07:08:32.189Z,15.60
2019-05-19T07:10:58.461Z,16.30
2019-05-19T07:13:24.973Z,17.20
2019-05-19T07:15:51.232Z,14.83
2019-05-19T07:18:17.677Z,14.28
2019-05-19T07:20:43.907Z,14.78
2019-05-19T07:23:10.229Z,13.32
2019-05-19T07:25:36.498Z,14.38
2019-05-19T07:28:02.852Z,13.72
2019-05-19T07:30:29.142Z,14.98
2019-05-19T07:32:55.489Z,14.23
2019-05-19T07:35:21.744Z,14.13
2019-05-19T07:37:48.021Z,13.50
2019-05-19T07:40:14.916Z,14.43
2019-05-19T07:42:41.258Z,15.90
2019-05-19T07:45:07.950Z,14.15
2019-05-19T07:47:37.317Z,15.00
2019-05-19T07:50:04.799Z,14.80
2019-05-19T07:52:31.316Z,14.75
2019-05-19T07:54:57.711Z,13.93
2019-05-19T07:57:24.071Z,13.58
2019-05-19T07:59:50.557Z,14.68
2019-05-19T08:02:16.788Z,12.70
2019-05-19T08:04:43.439Z,13.90
2019-05-19T08:07:09.741Z,13.25
2019-05-19T08:09:36.106Z,13.58
2019-05-19T08:12:02.494Z,13.40
2019-05-19T08:14:28.729Z,13.48
2019-05-19T08:16:55.138Z,13.18
2019-05-19T08:19:21.443Z,12.78
2019-05-19T08:21:47.778Z,13.53
2019-05-19T08:24:14.070Z,12.35
2019-05-19T08:26:40.438Z,12.33
2019-05-19T08:29:06.979Z,11.78
2019-05-19T08:31:33.218Z,13.13
2019-05-19T08:33:59.775Z,13.83
2019-05-19T08:36:26.824Z,13.35
2019-05-19T08:38:53.065Z,11.57
2019-05-19T08:41:19.607Z,12.40
2019-05-19T08:43:45.994Z,12.82
2019-05-19T08:46:12.379Z,12.20
2019-05-19T08:48:38.661Z,12.35
2019-05-19T08:51:05.024Z,12.78
2019-05-19T08:53:31.462Z,12.53
2019-05-19T08:55:57.851Z,12.25
2019-05-19T08:58:24.409Z,13.60
2019-05-19T09:00:50.722Z,13.08
2019-05-19T09:03:16.971Z,12.10
2019-05-19T09:05:43.272Z,12.23
2019-05-19T09:08:09.671Z,12.90
2019-05-19T09:10:36.007Z,12.10
2019-05-19T09:13:02.625Z,12.85
2019-05-19T09:15:29.041Z,12.10
2019-05-19T09:17:55.317Z,12.88
2019-05-19T09:20:21.574Z,12.80
2019-05-19T09:22:47.845Z,12.98
2019-05-19T09:25:14.184Z,12.78
2019-05-19T09:27:40.522Z,12.18
2019-05-19T09:30:10.793Z,13.03
2019-05-19T09:32:37.155Z,12.78
2019-05-19T09:35:06.941Z,12.18
2019-05-19T09:37:33.219Z,13.88
2019-05-19T09:39:59.462Z,11.38
2019-05-19T09:42:25.731Z,11.80
2019-05-19T09:44:52.032Z,12.35
2019-05-19T09:47:18.292Z,11.30
2019-05-19T09:49:44.628Z,10.72
2019-05-19T09:52:11.026Z,11.20
2019-05-19T09:54:45.183Z,11.90
2019-05-19T09:57:05.621Z,11.35
2019-05-19T09:59:31.963Z,10.88
2019-05-19T10:01:58.434Z,10.80
2019-05-19T10:04:24.704Z,12.88
2019-05-19T10:06:51.097Z,11.40
2019-05-19T10:09:23.689Z,10.63
2019-05-19T10:12:04.717Z,10.08
2019-05-19T10:14:31.100Z,10.28
2019-05-19T10:16:57.967Z,10.98
2019-05-19T10:19:24.412Z,10.35
2019-05-19T10:21:50.808Z,10.20
2019-05-19T10:24:17.489Z,9.35
2019-05-19T10:26:44.003Z,10.60
2019-05-19T10:29:10.227Z,10.53
2019-05-19T10:31:36.496Z,8.90
2019-05-19T10:34:02.955Z,9.53
2019-05-19T10:36:29.174Z,9.33
2019-05-19T10:38:55.568Z,8.25
2019-05-19T10:41:21.799Z,10.85
2019-05-19T10:43:50.059Z,9.05
2019-05-19T10:46:16.249Z,9.40
2019-05-19T10:48:42.614Z,8.70
2019-05-19T10:51:08.983Z,8.38
2019-05-19T10:53:35.376Z,8.85
2019-05-19T10:56:01.694Z,9.45
2019-05-19T10:58:28.225Z,9.98
2019-05-19T11:00:54.614Z,8.53
2019-05-19T11:03:21.066Z,9.40
2019-05-19T11:05:47.579Z,8.73
2019-05-19T11:08:13.884Z,9.15
2019-05-19T11:10:40.159Z,8.75
2019-05-19T11:13:06.412Z,8.70
2019-05-19T11:15:32.703Z,8.28
2019-05-19T11:17:58.982Z,8.20
2019-05-19T11:20:25.189Z,8.48
2019-05-19T11:22:51.476Z,8.13
2019-05-19T11:25:31.581Z,8.00
2019-05-19T11:27:46.031Z,8.05
2019-05-19T11:30:12.485Z,7.33
2019-05-19T11:32:38.858Z,7.87
2019-05-19T11:35:05.435Z,8.70
2019-05-19T11:37:31.671Z,9.45
2019-05-19T11:39:57.903Z,10.23
2019-05-19T11:42:24.152Z,8.18
2019-05-19T11:44:50.418Z,9.15
2019-05-19T11:47:16.740Z,8.48
2019-05-19T11:49:43.178Z,8.58
2019-05-19T11:52:10.158Z,8.35
2019-05-19T11:54:36.374Z,8.13
2019-05-19T11:57:02.995Z,8.13
2019-05-19T11:59:29.900Z,9.30
2019-05-19T12:01:56.293Z,8.08
2019-05-19T12:04:22.529Z,9.28
2019-05-19T12:06:48.860Z,9.10
2019-05-19T12:09:15.355Z,8.98
2019-05-19T12:11:41.602Z,8.83
2019-05-19T12:14:07.858Z,10.05
2019-05-19T12:16:34.130Z,9.63
2019-05-19T12:19:00.557Z,8.38
2019-05-19T12:21:26.841Z,8.50
2019-05-19T12:23:53.220Z,8.68
2019-05-19T12:26:23.296Z,8.18
2019-05-19T12:28:47.765Z,10.00
2019-05-19T12:31:14.023Z,9.53
2019-05-19T12:33:51.475Z,8.40
2019-05-19T12:36:08.501Z,8.85
2019-05-19T12:38:34.731Z,9.73
2019-05-19T12:41:01.109Z,9.23
2019-05-19T12:43:27.504Z,8.05
2019-05-19T12:45:53.905Z,9.15
2019-05-19T12:48:20.162Z,9.60
2019-05-19T12:50:46.572Z,8.55
2019-05-19T12:53:12.816Z,9.83
2019-05-19T12:55:39.675Z,8.95
2019-05-19T12:58:05.919Z,9.00
2019-05-19T13:00:32.275Z,8.95
2019-05-19T13:02:58.564Z,8.40
2019-05-19T13:05:25.154Z,9.00
2019-05-19T13:07:51.531Z,9.38
2019-05-19T13:10:17.953Z,9.13
2019-05-19T13:12:44.240Z,9.30
2019-05-19T13:15:11.073Z,10.08
2019-05-19T13:17:37.366Z,9.45
2019-05-19T13:20:04.092Z,8.90
2019-05-19T13:22:30.302Z,8.98
2019-05-19T13:24:56.595Z,9.40
2019-05-19T13:27:25.037Z,10.32
2019-05-19T13:29:51.771Z,11.45
2019-05-19T13:32:19.904Z,12.55
2019-05-19T13:34:46.160Z,11.00
2019-05-19T13:37:12.769Z,12.23
2019-05-19T13:39:39.010Z,11.65
2019-05-19T13:42:05.263Z,9.25
2019-05-19T13:44:31.636Z,10.28
2019-05-19T13:46:58.124Z,9.73
2019-05-19T13:49:24.380Z,12.18
2019-05-19T13:51:50.737Z,11.53
2019-05-19T13:54:17.025Z,10.45
2019-05-19T13:56:43.473Z,9.98
2019-05-19T13:59:09.711Z,9.30
2019-05-19T14:01:36.171Z,9.50
2019-05-19T14:04:02.585Z,9.70
2019-05-19T14:06:28.841Z,9.53
2019-05-19T14:08:55.107Z,9.08
2019-05-19T14:11:21.546Z,9.43
2019-05-19T14:13:47.841Z,9.43
2019-05-19T14:16:14.102Z,8.83
2019-05-19T14:18:40.380Z,10.30
2019-05-19T14:21:06.696Z,10.63
2019-05-19T14:23:32.937Z,10.43
2019-05-19T14:25:59.425Z,9.33
2019-05-19T14:28:25.677Z,8.98
2019-05-19T14:30:52.152Z,8.48
2019-05-19T14:33:18.488Z,9.55
2019-05-19T14:35:44.732Z,9.68
2019-05-19T14:38:11.116Z,10.32
2019-05-19T14:40:37.517Z,9.30
2019-05-19T14:43:04.051Z,9.43
2019-05-19T14:45:31.061Z,9.08
2019-05-19T14:47:57.644Z,9.35
2019-05-19T14:50:23.917Z,8.55
2019-05-19T14:52:50.275Z,8.53
2019-05-19T14:55:16.751Z,9.80
2019-05-19T14:57:45.236Z,10.13
2019-05-19T15:00:12.832Z,7.90
2019-05-19T15:02:39.093Z,8.75
2019-05-19T15:05:05.835Z,8.70
2019-05-19T15:07:32.174Z,10.60
2019-05-19T15:09:58.418Z,8.48
2019-05-19T15:12:24.663Z,9.30
2019-05-19T15:14:50.969Z,8.85
2019-05-19T15:17:17.215Z,10.55
2019-05-19T15:19:43.502Z,9.30
2019-05-19T15:22:09.778Z,8.58
2019-05-19T15:24:36.184Z,8.88
2019-05-19T15:27:02.569Z,8.73
2019-05-19T15:29:28.946Z,8.95
2019-05-19T15:31:55.346Z,8.70
2019-05-19T15:34:21.692Z,10.68
2019-05-19T15:36:47.919Z,9.65
2019-05-19T15:39:14.709Z,8.53
2019-05-19T15:41:41.071Z,8.35
2019-05-19T15:44:07.390Z,9.05
2019-05-19T15:46:33.644Z,9.13
2019-05-19T15:48:59.991Z,9.33
2019-05-19T15:51:29.188Z,8.88
2019-05-19T15:53:54.553Z,7.97
2019-05-19T15:56:20.798Z,8.13
2019-05-19T15:58:47.135Z,8.50
2019-05-19T16:01:13.424Z,10.53
2019-05-19T16:03:39.699Z,8.60
2019-05-19T16:06:06.019Z,8.20
2019-05-19T16:08:32.296Z,9.15
2019-05-19T16:10:58.522Z,8.65
2019-05-19T16:13:24.819Z,9.33
2019-05-19T16:15:51.108Z,8.53
2019-05-19T16:18:17.341Z,10.15
2019-05-19T16:20:43.737Z,11.60
2019-05-19T16:23:10.249Z,10.15
2019-05-19T16:25:36.478Z,10.78
2019-05-19T16:28:02.933Z,10.05
2019-05-19T16:30:29.181Z,9.60
2019-05-19T16:32:55.467Z,9.43
2019-05-19T16:35:21.844Z,11.48
2019-05-19T16:37:48.104Z,9.85
2019-05-19T16:40:14.721Z,9.00
2019-05-19T16:42:40.992Z,8.45
2019-05-19T16:45:07.956Z,8.40
2019-05-19T16:47:34.224Z,10.60
2019-05-19T16:50:00.462Z,9.53
2019-05-19T16:55:18.708Z,9.05
2019-05-19T16:57:44.953Z,9.83
2019-05-19T17:00:11.325Z,8.80
2019-05-19T17:02:37.596Z,9.38
2019-05-19T17:05:05.348Z,9.13
2019-05-19T17:07:31.755Z,11.38
2019-05-19T17:09:58.159Z,11.78
2019-05-19T17:12:24.746Z,9.50
2019-05-19T17:14:51.120Z,8.10
2019-05-19T17:17:17.355Z,8.15
2019-05-19T17:19:43.629Z,8.88
2019-05-19T17:22:10.033Z,8.90
2019-05-19T17:24:36.348Z,8.28
2019-05-19T17:27:02.866Z,8.33
2019-05-19T17:29:29.114Z,9.85
2019-05-19T17:32:05.588Z,10.35
2019-05-19T17:34:23.724Z,10.98
2019-05-19T17:36:50.008Z,10.48
2019-05-19T17:39:18.163Z,10.00
2019-05-19T17:41:44.565Z,10.20
2019-05-19T17:44:10.829Z,9.80
2019-05-19T17:46:37.069Z,10.40
2019-05-19T17:49:03.348Z,10.45
2019-05-19T17:51:29.627Z,10.10
2019-05-19T17:53:56.082Z,9.65
2019-05-19T17:56:26.882Z,10.10
2019-05-19T17:58:53.305Z,10.70
2019-05-19T18:01:19.578Z,10.75
2019-05-19T18:03:46.339Z,10.98
2019-05-19T18:06:12.869Z,10.63
2019-05-19T18:08:39.311Z,11.15
2019-05-19T18:11:05.591Z,10.90
2019-05-19T18:13:32.055Z,10.45
2019-05-19T18:15:58.420Z,10.80
2019-05-19T18:18:24.789Z,11.40
2019-05-19T18:20:51.127Z,9.58
2019-05-19T18:23:17.743Z,10.20
2019-05-19T18:25:44.055Z,10.30
2019-05-19T18:28:14.386Z,11.15
2019-05-19T18:30:40.916Z,10.23
2019-05-19T18:33:07.658Z,10.05
2019-05-19T18:35:36.257Z,11.95
2019-05-19T18:38:05.909Z,11.73
2019-05-19T18:40:34.497Z,11.35
2019-05-19T18:43:01.761Z,9.00
2019-05-19T18:45:28.145Z,11.63
2019-05-19T18:47:54.433Z,8.98
2019-05-19T18:50:22.523Z,10.88
2019-05-19T18:52:51.276Z,11.22
2019-05-19T18:55:18.251Z,10.10
2019-05-19T18:57:44.655Z,9.90
2019-05-19T19:00:15.389Z,10.08
2019-05-19T19:02:43.830Z,9.70
2019-05-19T19:05:12.360Z,10.55
2019-05-19T19:07:49.804Z,10.32
2019-05-19T19:10:16.250Z,10.18
2019-05-19T19:12:43.594Z,10.65
2019-05-19T19:15:10.365Z,9.70
2019-05-19T19:17:38.300Z,8.63
2019-05-19T19:20:06.067Z,9.10
2019-05-19T19:22:32.306Z,8.50
2019-05-19T19:24:58.617Z,9.13
2019-05-19T19:27:29.815Z,9.90
2019-05-19T19:30:03.667Z,11.85
2019-05-19T19:32:27.193Z,10.30
2019-05-19T19:34:53.564Z,13.53
2019-05-19T19:37:20.998Z,12.23
2019-05-19T19:39:47.339Z,9.50
2019-05-19T19:42:15.332Z,11.28
2019-05-19T19:44:42.007Z,10.98
2019-05-19T19:47:10.688Z,10.03
2019-05-19T19:49:38.876Z,9.70
2019-05-19T19:52:07.697Z,10.30
2019-05-19T19:54:34.942Z,9.70
2019-05-19T19:57:01.614Z,9.45
2019-05-19T19:59:29.613Z,9.90
2019-05-19T20:01:57.008Z,9.70
2019-05-19T20:04:23.418Z,13.35
2019-05-19T20:06:49.777Z,9.93
2019-05-19T20:09:16.200Z,10.28
2019-05-19T20:11:45.584Z,12.28
2019-05-19T20:14:11.950Z,11.95
2019-05-19T20:16:38.208Z,11.53
2019-05-19T20:19:06.932Z,10.23
2019-05-19T20:21:33.292Z,11.00
2019-05-19T20:23:59.533Z,11.68
2019-05-19T20:26:27.282Z,12.35
2019-05-19T20:28:53.542Z,10.72
2019-05-19T20:31:19.853Z,11.10
2019-05-19T20:33:46.138Z,11.40
2019-05-19T20:36:12.605Z,13.95
2019-05-19T20:38:38.850Z,12.78
2019-05-19T20:41:07.057Z,13.15
2019-05-19T20:43:33.390Z,11.83
2019-05-19T20:45:59.698Z,12.20
2019-05-19T20:48:26.160Z,12.37
2019-05-19T20:50:52.643Z,16.00
2019-05-19T20:53:19.123Z,12.75
2019-05-19T20:55:45.566Z,12.55
2019-05-19T20:58:11.812Z,17.45
2019-05-19T21:00:50.114Z,17.35
2019-05-19T21:03:06.423Z,15.60
2019-05-19T21:05:32.709Z,15.50
2019-05-19T21:07:59.206Z,17.57
2019-05-19T21:10:25.482Z,15.20
2019-05-19T21:12:51.743Z,17.32
2019-05-19T21:15:18.151Z,18.23
2019-05-19T21:17:44.392Z,17.27
2019-05-19T21:20:10.895Z,17.62
2019-05-19T21:22:37.330Z,17.27
2019-05-19T21:25:05.696Z,17.98
2019-05-19T21:27:32.165Z,17.32
2019-05-19T21:29:58.367Z,19.23
2019-05-19T21:32:24.642Z,19.17
2019-05-19T21:34:51.017Z,20.08
2019-05-19T21:37:17.483Z,18.73
2019-05-19T21:39:43.773Z,17.25
2019-05-19T21:42:10.160Z,16.35
2019-05-19T21:44:36.531Z,19.30
2019-05-19T21:47:02.869Z,17.82
2019-05-19T21:49:29.158Z,17.60
2019-05-19T21:51:55.826Z,18.85
2019-05-19T21:54:22.228Z,20.62
2019-05-19T21:56:48.502Z,18.70
2019-05-19T21:59:14.748Z,19.57
2019-05-19T22:01:41.159Z,20.60
2019-05-19T22:04:07.427Z,17.60
2019-05-19T22:06:35.664Z,18.12
2019-05-19T22:09:03.047Z,23.15
2019-05-19T22:11:29.426Z,20.80
2019-05-19T22:13:55.691Z,20.45
2019-05-19T22:16:22.060Z,20.30
2019-05-19T22:18:48.379Z,20.90
2019-05-19T22:21:14.626Z,21.42
2019-05-19T22:23:40.993Z,21.57
2019-05-19T22:26:07.269Z,20.75
2019-05-19T22:28:33.502Z,21.27
2019-05-19T22:30:59.746Z,21.07
2019-05-19T22:33:26.286Z,21.30
2019-05-19T22:35:52.565Z,20.15
2019-05-19T22:38:18.950Z,21.68
2019-05-19T22:40:45.297Z,23.25
2019-05-19T22:43:11.697Z,21.80
2019-05-19T22:45:38.056Z,21.97
2019-05-19T22:48:04.347Z,24.18
2019-05-19T22:50:30.875Z,22.42
2019-05-19T22:52:57.110Z,23.60
2019-05-19T22:55:37.286Z,23.52
2019-05-19T22:58:03.763Z,22.75
2019-05-19T23:00:30.188Z,22.62
2019-05-19T23:02:56.387Z,24.18
2019-05-19T23:05:22.618Z,24.40
2019-05-19T23:07:48.863Z,23.05
2019-05-19T23:10:15.573Z,22.98
2019-05-19T23:12:41.818Z,23.32
2019-05-19T23:15:08.642Z,23.10
2019-05-19T23:17:35.163Z,26.17
2019-05-19T23:20:01.807Z,26.15
2019-05-19T23:22:28.131Z,26.20
2019-05-19T23:25:14.263Z,23.80
2019-05-19T23:27:40.551Z,25.35
2019-05-19T23:30:07.613Z,25.02
2019-05-19T23:32:33.951Z,25.88
2019-05-19T23:35:00.257Z,26.60
2019-05-19T23:37:26.544Z,25.50
2019-05-19T23:39:54.237Z,24.60
2019-05-19T23:42:20.598Z,26.60
2019-05-19T23:44:47.058Z,25.65
2019-05-19T23:47:13.382Z,27.15
2019-05-19T23:49:39.712Z,26.60
2019-05-19T23:52:06.008Z,26.65
2019-05-19T23:54:33.861Z,28.42
2019-05-19T23:57:00.114Z,26.90
2019-05-19T23:59:26.380Z,26.52
